Time;durP1;ratioP1;P1;durP2;ratioP2;P2;SDS_P1;SDS_P2;PMS_P1;PMS_P2;Temp;Humidity;BMP_temperature;BMP_pressure;BME280_temperature;BME280_humidity;BME280_pressure;Samples;Min_cycle;Max_cycle;Signal;HPM_P1;HPM_P2
2023/05/06 00:02:00;;;;;;;10.63;8.68;;;11.70;99.90;;;;;;4872970;28;94750;-33
2023/05/06 00:04:26;;;;;;;9.23;8.35;;;11.80;99.90;;;;;;4868419;28;94078;-36
2023/05/06 00:06:53;;;;;;;11.00;8.85;;;11.80;99.90;;;;;;4880139;28;93140;-35
2023/05/06 00:09:18;;;;;;;11.15;7.85;;;11.80;99.90;;;;;;4878600;28;94346;-35
2023/05/06 00:11:44;;;;;;;9.18;7.28;;;11.80;99.90;;;;;;4879019;28;94769;-35
2023/05/06 00:14:10;;;;;;;9.02;6.85;;;11.80;99.90;;;;;;4870771;28;94387;-31
2023/05/06 00:16:36;;;;;;;9.10;8.15;;;11.80;99.90;;;;;;4863312;28;94249;-32
2023/05/06 00:19:01;;;;;;;8.15;7.18;;;11.80;99.90;;;;;;4880081;28;92867;-36
2023/05/06 00:21:27;;;;;;;9.18;7.50;;;11.80;99.90;;;;;;4872948;28;95663;-31
2023/05/06 00:23:52;;;;;;;8.70;7.65;;;11.80;99.90;;;;;;4860515;28;95855;-33
2023/05/06 00:26:18;;;;;;;9.23;8.02;;;11.80;99.90;;;;;;4872886;28;94435;-33
2023/05/06 00:28:44;;;;;;;7.75;6.85;;;11.80;99.90;;;;;;4873049;28;93197;-32
2023/05/06 00:31:09;;;;;;;10.13;7.70;;;11.80;99.90;;;;;;4879630;28;94701;-31
2023/05/06 00:33:35;;;;;;;6.95;6.18;;;11.80;99.90;;;;;;4881823;28;94351;-32
2023/05/06 00:36:00;;;;;;;11.18;8.15;;;11.80;99.90;;;;;;4873676;28;93951;-35
2023/05/06 00:38:26;;;;;;;8.60;7.72;;;11.70;99.90;;;;;;4860809;28;92507;-33
2023/05/06 00:40:52;;;;;;;9.45;7.32;;;11.70;99.90;;;;;;4861638;28;94531;-33
2023/05/06 00:43:17;;;;;;;9.73;6.90;;;11.70;99.90;;;;;;4860052;28;94840;-34
2023/05/06 00:45:43;;;;;;;9.70;7.57;;;11.60;99.90;;;;;;4872717;28;93876;-35
2023/05/06 00:48:09;;;;;;;10.27;8.35;;;11.60;99.90;;;;;;4860774;28;93175;-31
2023/05/06 00:50:35;;;;;;;11.63;8.63;;;11.60;99.90;;;;;;4860543;28;94760;-32
2023/05/06 00:53:03;;;;;;;9.10;8.15;;;11.60;99.90;;;;;;4861104;28;94522;-31
2023/05/06 00:55:29;;;;;;;11.25;7.72;;;11.50;99.90;;;;;;4874410;28;92809;-31
2023/05/06 00:57:56;;;;;;;10.05;8.23;;;11.50;99.90;;;;;;4878810;28;93335;-31
2023/05/06 01:00:21;;;;;;;12.23;8.80;;;11.40;99.90;;;;;;4865423;28;93825;-36
2023/05/06 01:02:47;;;;;;;10.85;9.25;;;11.40;99.90;;;;;;4871707;28;93597;-33
2023/05/06 01:05:19;;;;;;;10.07;9.15;;;11.30;99.90;;;;;;4859985;28;95037;-32
2023/05/06 01:08:03;;;;;;;9.27;8.30;;;11.30;99.90;;;;;;4860595;28;94400;-33
2023/05/06 01:10:42;;;;;;;13.65;8.23;;;11.30;99.90;;;;;;4859672;28;95429;-32
2023/05/06 01:13:20;;;;;;;9.93;8.90;;;11.20;99.90;;;;;;4860313;28;95151;-33
2023/05/06 01:15:48;;;;;;;9.07;7.10;;;11.20;99.90;;;;;;4860570;28;92631;-32
2023/05/06 01:18:21;;;;;;;12.93;10.25;;;11.20;99.90;;;;;;4865807;28;93315;-33
2023/05/06 01:20:51;;;;;;;10.15;7.90;;;11.10;99.90;;;;;;4877352;28;94717;-36
2023/05/06 01:23:17;;;;;;;8.85;7.95;;;11.10;99.90;;;;;;4878230;28;95496;-33
2023/05/06 01:25:43;;;;;;;10.68;9.20;;;11.10;99.90;;;;;;4878471;28;92213;-32
2023/05/06 01:28:10;;;;;;;10.77;9.27;;;11.00;99.90;;;;;;4878326;28;93526;-30
2023/05/06 01:30:51;;;;;;;11.85;8.93;;;11.00;99.90;;;;;;4877985;28;94532;-36
2023/05/06 01:33:35;;;;;;;10.00;8.43;;;11.00;99.90;;;;;;4878235;28;94521;-34
2023/05/06 01:36:26;;;;;;;9.90;8.90;;;11.00;99.90;;;;;;4877709;28;94116;-34
2023/05/06 01:38:54;;;;;;;10.25;9.20;;;11.00;99.90;;;;;;4875308;28;93596;-34
2023/05/06 01:41:23;;;;;;;10.85;9.02;;;11.00;99.90;;;;;;4877357;28;94288;-31
2023/05/06 01:43:52;;;;;;;9.85;8.55;;;11.00;99.90;;;;;;4878492;28;94543;-33
2023/05/06 01:46:18;;;;;;;;;;;11.00;99.90;;;;;;4878903;28;95075;-31
2023/05/06 01:48:47;;;;;;;12.50;11.02;;;11.00;99.90;;;;;;4879043;28;93902;-32
2023/05/06 01:51:12;;;;;;;;;;;11.00;99.90;;;;;;4880396;28;94948;-33
2023/05/06 01:53:38;;;;;;;11.57;9.00;;;11.00;99.90;;;;;;4883473;28;93118;-34
2023/05/06 01:56:04;;;;;;;10.95;8.80;;;11.00;99.90;;;;;;4882097;28;93905;-32
2023/05/06 01:58:30;;;;;;;11.50;10.32;;;11.00;99.90;;;;;;4880962;28;93158;-34
2023/05/06 02:00:56;;;;;;;12.75;9.98;;;11.00;99.90;;;;;;4880285;28;95785;-31
2023/05/06 02:03:21;;;;;;;14.48;11.55;;;11.00;99.90;;;;;;4867701;28;94872;-35
2023/05/06 02:05:47;;;;;;;12.07;10.50;;;11.00;99.90;;;;;;4868724;28;92997;-33
2023/05/06 02:08:12;;;;;;;17.05;12.63;;;11.00;99.90;;;;;;4867775;28;93132;-36
2023/05/06 02:10:38;;;;;;;13.07;10.82;;;11.00;99.90;;;;;;4868091;28;94769;-33
2023/05/06 02:13:04;;;;;;;12.50;9.40;;;11.00;99.90;;;;;;4867585;28;95742;-33
2023/05/06 02:15:30;;;;;;;13.65;10.43;;;11.00;99.90;;;;;;4862065;28;94583;-37
2023/05/06 02:17:56;;;;;;;18.45;11.77;;;11.00;99.90;;;;;;4875488;28;92785;-30
2023/05/06 02:20:22;;;;;;;16.05;12.63;;;10.90;99.90;;;;;;4880314;28;94160;-33
2023/05/06 02:22:47;;;;;;;11.73;10.52;;;10.90;99.90;;;;;;4880395;28;94940;-32
2023/05/06 02:25:13;;;;;;;12.05;10.68;;;10.90;99.90;;;;;;4879878;28;94673;-34
2023/05/06 02:27:38;;;;;;;12.00;10.70;;;10.90;99.90;;;;;;4867716;28;93287;-32
2023/05/06 02:30:06;;;;;;;13.25;11.00;;;10.90;99.90;;;;;;4880647;28;95669;-33
2023/05/06 02:32:32;;;;;;;18.27;10.27;;;10.80;99.90;;;;;;4879956;28;94833;-32
2023/05/06 02:34:57;;;;;;;15.27;11.18;;;10.80;99.90;;;;;;4880651;28;93279;-34
2023/05/06 02:37:23;;;;;;;13.60;9.75;;;10.80;99.90;;;;;;4875913;28;94724;-32
2023/05/06 02:39:48;;;;;;;12.82;10.90;;;10.80;99.90;;;;;;4862843;28;94394;-36
2023/05/06 02:42:14;;;;;;;14.52;11.27;;;10.80;99.90;;;;;;4862821;28;94679;-31
2023/05/06 02:44:40;;;;;;;14.63;10.50;;;10.70;99.90;;;;;;4862086;28;94598;-32
2023/05/06 02:47:06;;;;;;;15.55;10.95;;;10.70;99.90;;;;;;4878169;28;94541;-32
2023/05/06 02:49:31;;;;;;;12.57;11.23;;;10.70;99.90;;;;;;4868751;28;97597;-32
2023/05/06 02:51:57;;;;;;;13.75;9.88;;;10.70;99.90;;;;;;4862189;28;94676;-32
2023/05/06 02:54:23;;;;;;;12.93;9.93;;;10.70;99.90;;;;;;4867481;28;93458;-32
2023/05/06 02:56:48;;;;;;;10.30;9.38;;;10.70;99.90;;;;;;4865070;28;92714;-32
2023/05/06 02:59:14;;;;;;;12.48;9.57;;;10.70;99.90;;;;;;4862732;28;94714;-35
2023/05/06 03:01:39;;;;;;;14.13;10.68;;;10.60;99.90;;;;;;4874517;28;94319;-34
2023/05/06 03:04:05;;;;;;;9.13;8.27;;;10.60;99.90;;;;;;4863234;28;93280;-33
2023/05/06 03:06:31;;;;;;;13.32;10.73;;;10.60;99.90;;;;;;4865748;28;93279;-33
2023/05/06 03:08:57;;;;;;;11.55;9.73;;;10.60;99.90;;;;;;4862245;28;94000;-32
2023/05/06 03:11:22;;;;;;;13.60;10.10;;;10.50;99.90;;;;;;4864319;28;94674;-33
2023/05/06 03:13:48;;;;;;;10.82;9.73;;;10.40;99.90;;;;;;4861788;28;94770;-30
2023/05/06 03:16:13;;;;;;;10.70;9.65;;;10.40;99.90;;;;;;4865014;28;94235;-34
2023/05/06 03:18:39;;;;;;;13.95;11.63;;;10.40;99.90;;;;;;4872177;28;94172;-33
2023/05/06 03:21:05;;;;;;;12.57;10.63;;;10.40;99.90;;;;;;4879450;28;94176;-36
2023/05/06 03:23:31;;;;;;;12.82;10.88;;;10.30;99.90;;;;;;4879077;28;94169;-34
2023/05/06 03:25:56;;;;;;;12.85;10.70;;;10.30;99.90;;;;;;4878687;28;94445;-37
2023/05/06 03:28:22;;;;;;;25.73;12.77;;;10.30;99.90;;;;;;4879382;28;94882;-34
2023/05/06 03:30:48;;;;;;;11.48;10.38;;;10.30;99.90;;;;;;4879367;28;94722;-31
2023/05/06 03:33:14;;;;;;;30.25;12.45;;;10.30;99.90;;;;;;4880003;28;93285;-31
2023/05/06 03:35:39;;;;;;;25.85;12.98;;;10.30;99.90;;;;;;4863957;28;92693;-32
2023/05/06 03:38:05;;;;;;;34.97;15.15;;;10.30;99.90;;;;;;4861031;28;95596;-31
2023/05/06 03:40:32;;;;;;;14.60;11.95;;;10.20;99.90;;;;;;4864155;28;96057;-32
2023/05/06 03:42:57;;;;;;;35.85;14.80;;;10.20;99.90;;;;;;4870128;28;93939;-34
2023/05/06 03:45:23;;;;;;;17.35;13.13;;;10.20;99.90;;;;;;4861280;28;93098;-32
2023/05/06 03:47:49;;;;;;;16.73;12.27;;;10.20;99.90;;;;;;4860276;28;95748;-31
2023/05/06 03:50:14;;;;;;;14.32;11.25;;;10.20;99.90;;;;;;4872582;28;94864;-34
2023/05/06 03:52:40;;;;;;;12.30;9.85;;;10.20;99.90;;;;;;4861445;28;93086;-31
2023/05/06 03:55:06;;;;;;;23.17;13.18;;;10.10;99.90;;;;;;4871547;28;91513;-32
2023/05/06 03:57:31;;;;;;;13.73;12.32;;;10.10;99.90;;;;;;4861666;28;94530;-34
2023/05/06 03:59:57;;;;;;;18.88;14.00;;;10.10;99.90;;;;;;4870775;28;94283;-33
2023/05/06 04:02:23;;;;;;;24.23;14.18;;;10.10;99.90;;;;;;4866058;28;94078;-33
2023/05/06 04:04:48;;;;;;;14.20;12.50;;;10.10;99.90;;;;;;4868068;28;94528;-32
2023/05/06 04:07:14;;;;;;;14.15;12.13;;;10.10;99.90;;;;;;4871904;28;94464;-33
2023/05/06 04:09:39;;;;;;;12.68;11.38;;;10.10;99.90;;;;;;4893428;23;94056;-31
2023/05/06 04:12:05;;;;;;;11.15;9.85;;;10.10;99.90;;;;;;4871689;28;93263;-31
2023/05/06 04:14:32;;;;;;;13.40;11.65;;;10.10;99.90;;;;;;4853698;28;93622;-31
2023/05/06 04:16:58;;;;;;;11.75;10.50;;;10.20;99.90;;;;;;4853440;28;94832;-30
2023/05/06 04:19:23;;;;;;;11.65;10.35;;;10.10;99.90;;;;;;4853321;28;94559;-36
2023/05/06 04:21:49;;;;;;;154.73;25.33;;;10.10;99.90;;;;;;4850291;28;92859;-31
2023/05/06 04:24:14;;;;;;;8.27;7.45;;;9.80;99.90;;;;;;4858786;28;94758;-33
2023/05/06 04:26:41;;;;;;;11.55;9.95;;;9.80;99.90;;;;;;4859989;28;95743;-30
2023/05/06 04:29:07;;;;;;;10.68;9.60;;;9.80;99.90;;;;;;4859189;28;97045;-34
2023/05/06 04:31:33;;;;;;;11.18;10.23;;;9.90;99.90;;;;;;4860419;28;94377;-35
2023/05/06 04:34:00;;;;;;;12.00;10.57;;;10.00;99.90;;;;;;4859795;28;92747;-34
2023/05/06 04:36:26;;;;;;;13.60;11.80;;;10.00;99.90;;;;;;4858560;28;94778;-34
2023/05/06 04:38:52;;;;;;;12.75;9.95;;;10.10;99.90;;;;;;4859089;28;95037;-36
2023/05/06 04:41:19;;;;;;;7.55;6.55;;;10.00;99.90;;;;;;4860046;28;93669;-31
2023/05/06 04:43:45;;;;;;;9.80;5.97;;;9.80;99.90;;;;;;4859278;28;91611;-33
2023/05/06 04:46:10;;;;;;;7.80;6.25;;;9.60;99.90;;;;;;4859612;28;94633;-36
2023/05/06 04:48:37;;;;;;;32.42;10.48;;;9.70;99.90;;;;;;4858669;28;94057;-33
2023/05/06 04:51:06;;;;;;;76.22;12.55;;;9.60;99.90;;;;;;4858247;28;94258;-34
2023/05/06 04:53:31;;;;;;;93.85;16.77;;;9.60;99.90;;;;;;4856370;28;95076;-36
2023/05/06 04:55:57;;;;;;;163.82;20.38;;;9.50;99.90;;;;;;4854822;28;94757;-32
2023/05/06 04:58:23;;;;;;;122.15;18.25;;;9.60;99.90;;;;;;4850625;28;94970;-33
2023/05/06 05:00:48;;;;;;;82.03;13.85;;;9.70;99.90;;;;;;4841815;28;94183;-30
2023/05/06 05:03:14;;;;;;;162.90;16.75;;;9.60;99.90;;;;;;4840178;28;95145;-33
2023/05/06 05:05:39;;;;;;;50.50;11.63;;;9.70;99.90;;;;;;4862972;28;94481;-36
2023/05/06 05:08:05;;;;;;;54.88;11.60;;;9.70;99.90;;;;;;4854823;28;94114;-33
2023/05/06 05:10:31;;;;;;;12.13;9.07;;;9.60;99.90;;;;;;4840715;28;93416;-36
2023/05/06 05:12:57;;;;;;;36.03;11.40;;;9.60;99.90;;;;;;4841735;28;93394;-34
2023/05/06 05:15:23;;;;;;;59.28;11.43;;;9.70;99.90;;;;;;4838849;28;95645;-33
2023/05/06 05:17:49;;;;;;;44.90;13.07;;;9.80;99.90;;;;;;4852514;28;95886;-33
2023/05/06 05:20:15;;;;;;;84.55;13.40;;;9.90;99.90;;;;;;4856868;28;93519;-31
2023/05/06 05:22:41;;;;;;;30.90;10.93;;;9.90;99.90;;;;;;4853436;28;92443;-32
2023/05/06 05:25:07;;;;;;;43.38;11.23;;;10.00;99.90;;;;;;4858500;28;94745;-35
2023/05/06 05:27:32;;;;;;;14.23;10.13;;;10.10;99.90;;;;;;4859364;28;94384;-32
2023/05/06 05:29:58;;;;;;;30.88;11.52;;;10.10;99.90;;;;;;4862538;28;92224;-36
2023/05/06 05:32:25;;;;;;;10.85;9.85;;;10.20;99.90;;;;;;4857413;28;94260;-30
2023/05/06 05:34:50;;;;;;;10.38;9.38;;;10.40;99.90;;;;;;4858893;28;95625;-34
2023/05/06 05:37:16;;;;;;;13.35;9.43;;;10.50;99.90;;;;;;4856839;28;93905;-32
2023/05/06 05:39:42;;;;;;;10.63;9.65;;;10.60;99.90;;;;;;4859346;28;95458;-33
2023/05/06 05:42:07;;;;;;;13.45;11.68;;;10.80;99.90;;;;;;4860340;28;92503;-31
2023/05/06 05:44:33;;;;;;;11.98;10.77;;;11.00;99.90;;;;;;4859394;28;94765;-30
2023/05/06 05:46:58;;;;;;;11.27;10.27;;;11.20;99.90;;;;;;4856059;28;94228;-37
2023/05/06 05:49:24;;;;;;;12.63;11.15;;;11.30;99.90;;;;;;4850371;28;93136;-33
2023/05/06 05:51:50;;;;;;;11.57;10.32;;;11.40;99.90;;;;;;4859005;28;94261;-31
2023/05/06 05:54:15;;;;;;;14.43;12.23;;;11.40;99.90;;;;;;4860247;28;95015;-33
2023/05/06 05:56:41;;;;;;;15.63;11.60;;;11.30;99.90;;;;;;4851583;28;93048;-30
2023/05/06 05:59:07;;;;;;;17.65;11.10;;;11.30;99.90;;;;;;4843416;28;93533;-36
2023/05/06 06:01:32;;;;;;;25.40;12.30;;;11.30;99.90;;;;;;4851297;28;94238;-31
2023/05/06 06:03:58;;;;;;;32.00;12.88;;;11.30;99.90;;;;;;4859987;28;95783;-35
2023/05/06 06:06:25;;;;;;;89.82;19.98;;;11.40;99.90;;;;;;4861252;28;95640;-31
2023/05/06 06:08:50;;;;;;;40.40;16.35;;;11.30;99.90;;;;;;4861380;28;94509;-33
2023/05/06 06:11:16;;;;;;;33.88;14.45;;;11.30;99.90;;;;;;4861326;28;94332;-35
2023/05/06 06:13:42;;;;;;;29.15;16.08;;;11.40;99.90;;;;;;4861269;28;95462;-32
2023/05/06 06:16:07;;;;;;;35.65;17.80;;;11.50;99.90;;;;;;4860963;28;93860;-33
2023/05/06 06:18:33;;;;;;;54.30;17.33;;;11.50;99.90;;;;;;4861763;28;94240;-30
2023/05/06 06:20:59;;;;;;;62.30;19.25;;;11.60;99.90;;;;;;4861295;28;92430;-35
2023/05/06 06:23:25;;;;;;;28.02;17.60;;;11.60;99.90;;;;;;4861541;28;94358;-33
2023/05/06 06:25:50;;;;;;;47.25;16.48;;;11.60;99.90;;;;;;4860515;28;95708;-33
2023/05/06 06:28:16;;;;;;;122.63;23.27;;;11.70;99.90;;;;;;4861094;28;95566;-31
2023/05/06 06:30:41;;;;;;;22.52;16.30;;;11.70;99.90;;;;;;4861134;28;93337;-30
2023/05/06 06:33:07;;;;;;;23.48;17.98;;;11.90;99.90;;;;;;4860322;28;94784;-32
2023/05/06 06:35:33;;;;;;;19.58;17.77;;;12.00;99.90;;;;;;4860893;28;93818;-35
2023/05/06 06:37:59;;;;;;;19.70;16.23;;;12.20;99.90;;;;;;4860435;28;93802;-33
2023/05/06 06:40:24;;;;;;;23.95;19.58;;;12.50;99.90;;;;;;4860984;28;93777;-36
2023/05/06 06:42:50;;;;;;;20.77;18.60;;;12.90;99.90;;;;;;4861172;28;94499;-34
2023/05/06 06:45:17;;;;;;;21.67;18.98;;;13.10;99.90;;;;;;4861163;28;94399;-36
2023/05/06 06:47:43;;;;;;;23.73;18.90;;;13.20;99.90;;;;;;4861323;28;92697;-34
2023/05/06 06:50:09;;;;;;;23.13;19.73;;;13.40;99.90;;;;;;4862972;28;94837;-31
2023/05/06 06:52:34;;;;;;;25.38;18.50;;;13.40;99.90;;;;;;4859979;28;95839;-34
2023/05/06 06:55:00;;;;;;;19.95;17.30;;;13.40;99.90;;;;;;4861230;28;96320;-30
2023/05/06 06:57:26;;;;;;;27.67;20.17;;;13.70;99.90;;;;;;4860479;28;92891;-31
2023/05/06 06:59:52;;;;;;;21.77;19.70;;;13.90;99.90;;;;;;4861053;28;93800;-31
2023/05/06 07:02:21;;;;;;;23.50;18.50;;;14.40;99.90;;;;;;4841821;28;93787;-34
2023/05/06 07:04:47;;;;;;;25.52;19.85;;;14.90;99.90;;;;;;4841876;28;94992;-33
2023/05/06 07:07:13;;;;;;;22.60;19.23;;;15.10;99.90;;;;;;4842715;28;93017;-33
2023/05/06 07:09:39;;;;;;;24.25;19.40;;;15.30;99.90;;;;;;4854034;28;93173;-34
2023/05/06 07:12:07;;;;;;;22.75;18.55;;;15.30;99.90;;;;;;4859301;28;94958;-34
2023/05/06 07:14:33;;;;;;;19.17;16.85;;;15.20;99.90;;;;;;4850001;28;95186;-33
2023/05/06 07:16:59;;;;;;;24.63;16.80;;;15.30;99.90;;;;;;4849193;28;95013;-33
2023/05/06 07:19:29;;;;;;;26.83;17.48;;;15.30;99.90;;;;;;4853712;28;93851;-31
2023/05/06 07:21:55;;;;;;;24.02;18.55;;;15.30;99.90;;;;;;4849703;28;94255;-34
2023/05/06 07:24:21;;;;;;;26.75;19.08;;;15.40;99.90;;;;;;4858761;28;94268;-31
2023/05/06 07:26:47;;;;;;;22.05;19.40;;;15.40;99.90;;;;;;4860557;28;92290;-32
2023/05/06 07:29:12;;;;;;;24.58;18.98;;;15.40;99.90;;;;;;4857263;28;94675;-33
2023/05/06 07:31:38;;;;;;;22.05;19.92;;;15.40;99.90;;;;;;4858610;28;94857;-32
2023/05/06 07:34:03;;;;;;;20.75;18.58;;;15.40;99.90;;;;;;4855168;28;94140;-32
2023/05/06 07:36:34;;;;;;;22.80;20.30;;;15.30;99.90;;;;;;4848416;28;93198;-34
2023/05/06 07:38:59;;;;;;;21.10;18.98;;;15.30;99.90;;;;;;4843502;28;94301;-35
2023/05/06 07:41:25;;;;;;;22.83;18.88;;;15.20;99.90;;;;;;4840683;28;95616;-33
2023/05/06 07:43:51;;;;;;;19.20;16.95;;;15.10;99.90;;;;;;4844267;28;96026;-35
2023/05/06 07:46:16;;;;;;;19.33;16.45;;;15.20;99.90;;;;;;4850111;28;94312;-32
2023/05/06 07:48:42;;;;;;;19.98;17.13;;;15.20;99.90;;;;;;4849082;28;94540;-34
2023/05/06 07:51:07;;;;;;;20.50;18.30;;;15.20;99.90;;;;;;4840611;28;93029;-34
2023/05/06 07:53:34;;;;;;;20.02;16.65;;;15.20;99.90;;;;;;4854856;28;95026;-32
2023/05/06 07:56:01;;;;;;;18.70;16.52;;;15.20;99.90;;;;;;4857758;28;94187;-36
2023/05/06 07:58:30;;;;;;;20.33;15.52;;;15.20;99.90;;;;;;4857989;28;92733;-33
2023/05/06 08:00:56;;;;;;;18.60;14.80;;;15.30;99.90;;;;;;4851575;28;94974;-31
2023/05/06 08:03:22;;;;;;;19.63;15.40;;;15.30;99.90;;;;;;4838506;28;94720;-31
2023/05/06 08:05:50;;;;;;;18.10;14.38;;;15.40;99.90;;;;;;4838482;28;95375;-33
2023/05/06 08:08:15;;;;;;;20.73;14.15;;;15.40;99.90;;;;;;4839702;28;94735;-32
2023/05/06 08:10:42;;;;;;;18.65;15.98;;;15.50;99.90;;;;;;4851475;28;95474;-34
2023/05/06 08:13:08;;;;;;;18.45;15.15;;;15.50;99.90;;;;;;4838821;28;94490;-32
2023/05/06 08:15:34;;;;;;;19.50;17.05;;;15.60;99.90;;;;;;4838552;28;94072;-30
2023/05/06 08:17:59;;;;;;;20.15;16.48;;;15.70;99.90;;;;;;4856857;28;93495;-36
2023/05/06 08:20:25;;;;;;;22.10;17.67;;;15.80;99.90;;;;;;4848748;28;94129;-34
2023/05/06 08:22:51;;;;;;;20.75;17.92;;;15.80;99.90;;;;;;4843711;28;94629;-33
2023/05/06 08:25:16;;;;;;;26.85;21.67;;;15.90;99.90;;;;;;4845578;28;95217;-33
2023/05/06 08:27:42;;;;;;;24.65;20.42;;;16.00;99.90;;;;;;4844458;28;93357;-33
2023/05/06 08:30:08;;;;;;;19.83;16.73;;;16.10;99.90;;;;;;4847482;28;96419;-35
2023/05/06 08:32:34;;;;;;;19.60;16.23;;;16.40;99.90;;;;;;4849016;28;95030;-30
2023/05/06 08:35:00;;;;;;;20.42;18.13;;;16.50;99.90;;;;;;4853614;28;93371;-32
2023/05/06 08:37:25;;;;;;;22.75;18.00;;;16.80;99.90;;;;;;4844227;28;93739;-30
2023/05/06 08:39:51;;;;;;;22.23;15.80;;;17.10;99.90;;;;;;4844908;28;95005;-35
2023/05/06 08:42:17;;;;;;;16.48;14.45;;;17.20;99.90;;;;;;4843728;28;94700;-33
2023/05/06 08:44:43;;;;;;;19.17;14.93;;;17.40;99.90;;;;;;4845845;28;94533;-35
2023/05/06 08:47:09;;;;;;;17.63;15.00;;;17.60;99.90;;;;;;4844456;28;92520;-34
2023/05/06 08:49:35;;;;;;;18.02;15.63;;;17.90;99.90;;;;;;4848682;28;95929;-34
2023/05/06 08:52:04;;;;;;;17.30;14.98;;;18.00;99.90;;;;;;4853090;28;94775;-32
2023/05/06 08:54:33;;;;;;;16.77;14.18;;;18.20;99.90;;;;;;4855871;28;93839;-32
2023/05/06 08:57:01;;;;;;;17.10;15.02;;;18.40;99.90;;;;;;4856401;28;94191;-32
2023/05/06 08:59:29;;;;;;;17.35;14.63;;;18.50;99.90;;;;;;4857385;28;94271;-36
2023/05/06 09:01:55;;;;;;;;;;;18.50;99.90;;;;;;4860060;28;94262;-36
2023/05/06 09:04:21;;;;;;;24.08;17.00;;;18.70;99.90;;;;;;4862267;28;93091;-34
2023/05/06 09:06:46;;;;;;;20.73;16.42;;;18.90;99.90;;;;;;4859235;28;93217;-35
2023/05/06 09:09:13;;;;;;;20.73;16.80;;;18.80;99.90;;;;;;4859660;28;94948;-31
2023/05/06 09:11:40;;;;;;;20.65;15.95;;;18.80;99.90;;;;;;4859768;28;95198;-34
2023/05/06 09:14:16;;;;;;;16.65;12.82;;;18.90;99.90;;;;;;4859997;28;94451;-36
2023/05/06 09:16:44;;;;;;;16.40;13.52;;;18.90;99.90;;;;;;4859413;28;93185;-32
2023/05/06 09:19:11;;;;;;;12.05;9.75;;;19.30;99.90;;;;;;4859795;28;96092;-31
2023/05/06 09:21:39;;;;;;;15.05;9.73;;;19.70;99.90;;;;;;4860238;28;95562;-36
2023/05/06 09:24:07;;;;;;;11.57;9.88;;;19.70;99.90;;;;;;4860313;28;93517;-32
2023/05/06 09:26:35;;;;;;;15.05;9.95;;;19.90;99.90;;;;;;4860435;28;93356;-35
2023/05/06 09:29:01;;;;;;;17.63;13.98;;;20.20;99.90;;;;;;4846670;28;94388;-31
2023/05/06 09:31:27;;;;;;;17.38;14.68;;;20.30;99.90;;;;;;4841067;28;94338;-33
2023/05/06 09:33:57;;;;;;;17.65;13.48;;;20.10;99.90;;;;;;4843064;28;93132;-33
2023/05/06 09:36:25;;;;;;;16.95;12.38;;;20.20;99.90;;;;;;4851302;28;92733;-35
2023/05/06 09:38:52;;;;;;;23.13;14.93;;;20.30;99.90;;;;;;4841771;28;94541;-33
2023/05/06 09:41:20;;;;;;;23.95;17.80;;;19.90;99.90;;;;;;4841371;28;94003;-34
2023/05/06 09:43:48;;;;;;;22.33;17.77;;;19.60;99.90;;;;;;4840684;28;94135;-31
2023/05/06 09:46:14;;;;;;;21.73;17.52;;;19.80;99.90;;;;;;4840730;28;93653;-35
2023/05/06 09:48:40;;;;;;;21.65;17.45;;;19.80;99.90;;;;;;4856988;28;94369;-36
2023/05/06 09:51:06;;;;;;;20.90;15.50;;;20.00;99.90;;;;;;4859383;28;96134;-33
2023/05/06 09:53:37;;;;;;;21.55;16.45;;;20.00;99.90;;;;;;4859190;28;93905;-34
2023/05/06 09:56:07;;;;;;;23.52;16.42;;;20.10;99.90;;;;;;4854285;28;93885;-33
2023/05/06 09:58:34;;;;;;;18.52;14.77;;;20.30;99.90;;;;;;4841139;28;94892;-36
2023/05/06 10:01:02;;;;;;;20.42;13.93;;;20.20;99.90;;;;;;4859839;28;94850;-34
2023/05/06 10:03:29;;;;;;;17.35;14.00;;;20.20;99.90;;;;;;4847747;28;92692;-35
2023/05/06 10:05:58;;;;;;;16.60;11.57;;;20.20;99.90;;;;;;4859610;28;93745;-33
2023/05/06 10:08:24;;;;;;;14.35;12.07;;;20.10;99.90;;;;;;4856530;28;96031;-34
2023/05/06 10:10:50;;;;;;;21.10;12.82;;;20.20;99.90;;;;;;4840669;28;94525;-31
2023/05/06 10:13:16;;;;;;;19.45;15.68;;;20.20;99.90;;;;;;4855335;28;93752;-35
2023/05/06 10:15:45;;;;;;;19.83;15.68;;;20.10;99.90;;;;;;4859418;28;94021;-33
2023/05/06 10:18:15;;;;;;;16.70;13.98;;;20.10;99.90;;;;;;4859406;28;93816;-32
2023/05/06 10:20:42;;;;;;;15.93;14.23;;;20.20;99.90;;;;;;4858627;28;95839;-34
2023/05/06 10:23:12;;;;;;;17.48;14.20;;;20.10;99.90;;;;;;4858716;28;93458;-31
2023/05/06 10:25:39;;;;;;;18.90;14.80;;;19.80;99.90;;;;;;4859178;28;93673;-36
2023/05/06 10:28:07;;;;;;;17.08;14.80;;;19.70;99.90;;;;;;4853408;28;94596;-35
2023/05/06 10:30:33;;;;;;;15.07;13.50;;;19.60;99.90;;;;;;4842399;28;95227;-31
2023/05/06 10:33:04;;;;;;;15.07;13.45;;;19.70;99.90;;;;;;4852392;28;94228;-35
2023/05/06 10:35:43;;;;;;;14.50;12.77;;;19.80;99.90;;;;;;4842354;28;94074;-35
2023/05/06 10:38:11;;;;;;;16.95;13.55;;;20.10;99.90;;;;;;4849880;28;96200;-32
2023/05/06 10:40:37;;;;;;;17.50;15.70;;;19.80;99.90;;;;;;4844476;28;93760;-33
2023/05/06 10:43:23;;;;;;;14.63;13.05;;;20.00;99.90;;;;;;4842554;28;94433;-34
2023/05/06 10:46:08;;;;;;;15.55;13.90;;;20.20;99.90;;;;;;4841687;28;93150;-32
2023/05/06 10:48:38;;;;;;;14.98;13.30;;;20.60;99.90;;;;;;4842542;28;95122;-33
2023/05/06 10:51:12;;;;;;;14.35;12.90;;;20.60;99.90;;;;;;4850780;28;94248;-35
2023/05/06 10:54:02;;;;;;;14.10;11.88;;;20.20;94.10;;;;;;4859013;28;94087;-36
2023/05/06 10:56:35;;;;;;;12.68;11.07;;;19.90;99.90;;;;;;4839521;28;92780;-34
2023/05/06 10:59:11;;;;;;;14.05;12.05;;;19.80;99.90;;;;;;4839714;28;97159;-32
2023/05/06 11:01:39;;;;;;;13.80;12.10;;;19.60;99.90;;;;;;4840140;28;96266;-35
2023/05/06 11:04:11;;;;;;;12.07;10.80;;;19.50;99.90;;;;;;4847048;28;94307;-36
2023/05/06 11:06:47;;;;;;;12.43;10.85;;;19.40;99.90;;;;;;4858308;28;94619;-32
2023/05/06 11:09:18;;;;;;;12.68;10.65;;;19.40;99.90;;;;;;4847357;28;94817;-36
2023/05/06 11:12:03;;;;;;;14.57;13.07;;;19.30;99.90;;;;;;4846479;28;94046;-33
2023/05/06 11:14:30;;;;;;;11.90;10.23;;;19.30;99.90;;;;;;4847913;28;94487;-32
2023/05/06 11:16:58;;;;;;;13.05;11.57;;;19.20;99.90;;;;;;4845586;28;92361;-33
2023/05/06 11:19:26;;;;;;;12.98;11.00;;;19.30;99.90;;;;;;4848618;28;94335;-37
2023/05/06 11:21:56;;;;;;;12.07;10.85;;;19.30;99.90;;;;;;4842571;28;94335;-33
2023/05/06 11:24:37;;;;;;;13.85;10.70;;;19.20;99.90;;;;;;4854529;28;94426;-34
2023/05/06 11:27:02;;;;;;;16.70;9.98;;;19.40;99.90;;;;;;4851228;28;93269;-32
2023/05/06 11:29:28;;;;;;;13.15;10.32;;;19.50;99.90;;;;;;4848501;28;94940;-35
2023/05/06 11:31:53;;;;;;;17.77;11.43;;;19.50;99.90;;;;;;4849686;28;94625;-35
2023/05/06 11:34:27;;;;;;;14.63;10.27;;;19.50;99.90;;;;;;4847937;28;92300;-31
2023/05/06 11:36:59;;;;;;;16.73;11.65;;;19.50;99.90;;;;;;4848977;28;92202;-34
2023/05/06 11:39:31;;;;;;;19.33;13.48;;;19.40;99.90;;;;;;4848947;28;96220;-33
2023/05/06 11:41:58;;;;;;;14.35;12.05;;;19.40;99.90;;;;;;4857099;28;94364;-33
2023/05/06 11:44:26;;;;;;;11.48;10.35;;;19.50;99.90;;;;;;4843760;28;93426;-33
2023/05/06 11:46:55;;;;;;;13.80;11.98;;;19.50;99.90;;;;;;4854829;28;94789;-34
2023/05/06 11:49:21;;;;;;;17.90;12.82;;;19.50;99.90;;;;;;4843040;28;95823;-33
2023/05/06 11:51:48;;;;;;;15.60;13.18;;;19.50;99.90;;;;;;4846719;28;95628;-36
2023/05/06 11:54:17;;;;;;;14.90;11.68;;;19.50;99.90;;;;;;4848514;28;92244;-32
2023/05/06 11:56:47;;;;;;;14.57;12.15;;;19.50;99.90;;;;;;4858207;28;94081;-33
2023/05/06 11:59:13;;;;;;;13.38;12.00;;;19.40;99.90;;;;;;4840706;28;95084;-33
2023/05/06 12:01:42;;;;;;;14.35;12.85;;;19.40;99.90;;;;;;4838882;28;94210;-33
2023/05/06 12:04:08;;;;;;;17.27;12.27;;;19.50;99.90;;;;;;4838980;28;92253;-33
2023/05/06 12:06:34;;;;;;;13.82;12.43;;;19.50;99.90;;;;;;4839844;28;93780;-32
2023/05/06 12:09:03;;;;;;;14.63;12.68;;;19.50;99.90;;;;;;4838825;28;94318;-34
2023/05/06 12:11:29;;;;;;;13.50;12.13;;;19.50;99.90;;;;;;4839309;28;94224;-31
2023/05/06 12:13:55;;;;;;;13.55;12.18;;;19.50;99.90;;;;;;4838947;28;94351;-34
2023/05/06 12:16:22;;;;;;;16.20;14.27;;;19.50;99.90;;;;;;4839286;28;92851;-31
2023/05/06 12:18:48;;;;;;;17.17;15.38;;;19.50;99.90;;;;;;4848514;28;94987;-34
2023/05/06 12:21:19;;;;;;;15.32;13.93;;;19.50;97.10;;;;;;4852174;28;95704;-32
2023/05/06 12:23:52;;;;;;;14.75;13.18;;;19.50;96.50;;;;;;4854395;28;93555;-36
2023/05/06 12:26:19;;;;;;;15.93;14.23;;;19.50;99.90;;;;;;4851632;28;93099;-34
2023/05/06 12:28:45;;;;;;;17.80;14.32;;;19.50;90.90;;;;;;4855113;28;93694;-37
2023/05/06 12:31:37;;;;;;;17.50;15.70;;;19.50;92.70;;;;;;4852447;28;93342;-33